createdAt,value
2023-04-30T00:00:54.829Z,66.95
2023-04-30T00:01:54.866Z,60.11
2023-04-30T00:02:54.922Z,62.34
2023-04-30T00:03:54.972Z,70.86
2023-04-30T00:04:54.895Z,72.01
2023-04-30T00:05:54.934Z,67.82
2023-04-30T00:06:54.913Z,64.72
2023-04-30T00:07:54.940Z,71.28
2023-04-30T00:08:54.966Z,72.25
2023-04-30T00:09:55.212Z,64.24
2023-04-30T00:10:55.052Z,62.61
2023-04-30T00:11:55.024Z,70.70
2023-04-30T00:12:55.051Z,64.80
2023-04-30T00:13:55.056Z,61.98
2023-04-30T00:14:55.118Z,60.34
2023-04-30T00:15:55.150Z,63.04
2023-04-30T00:16:55.119Z,63.64
2023-04-30T00:17:55.199Z,64.61
2023-04-30T00:18:55.197Z,66.31
2023-04-30T00:19:55.409Z,62.94
2023-04-30T00:20:55.231Z,69.07
2023-04-30T00:21:55.231Z,63.13
2023-04-30T00:22:55.237Z,66.05
2023-04-30T00:23:55.284Z,62.82
2023-04-30T00:24:55.280Z,64.97
2023-04-30T00:25:55.309Z,66.68
2023-04-30T00:26:55.347Z,67.55
2023-04-30T00:27:55.335Z,60.63
2023-04-30T00:28:55.374Z,61.03
2023-04-30T00:29:55.654Z,61.79
2023-04-30T00:30:55.421Z,60.45
2023-04-30T00:31:55.473Z,69.91
2023-04-30T00:32:55.471Z,59.35
2023-04-30T00:33:55.506Z,67.02
2023-04-30T00:34:55.497Z,65.99
2023-04-30T00:35:55.523Z,67.98
2023-04-30T00:36:55.527Z,66.11
2023-04-30T00:37:55.566Z,64.20
2023-04-30T00:38:55.601Z,71.21
2023-04-30T00:39:55.939Z,60.67
2023-04-30T00:40:55.657Z,58.80
2023-04-30T00:41:55.682Z,73.76
2023-04-30T00:42:55.702Z,63.28
2023-04-30T00:43:55.831Z,61.25
2023-04-30T00:44:55.724Z,66.52
2023-04-30T00:45:55.786Z,69.99
2023-04-30T00:46:55.783Z,63.02
2023-04-30T00:47:55.903Z,70.97
2023-04-30T00:48:55.855Z,62.20
2023-04-30T00:49:56.297Z,68.91
2023-04-30T00:50:55.895Z,71.34
2023-04-30T00:51:55.908Z,65.34
2023-04-30T00:52:55.926Z,58.33
2023-04-30T00:53:55.948Z,67.00
2023-04-30T00:54:56.030Z,60.32
2023-04-30T00:55:56.000Z,66.02
2023-04-30T00:56:56.060Z,62.38
2023-04-30T00:57:56.069Z,69.33
2023-04-30T00:58:56.098Z,72.97
2023-04-30T00:59:56.512Z,67.63
2023-04-30T01:00:56.192Z,68.74
2023-04-30T01:01:56.163Z,64.85
2023-04-30T01:02:56.301Z,62.99
2023-04-30T01:03:56.232Z,59.61
2023-04-30T01:04:56.250Z,67.62
2023-04-30T01:05:56.343Z,69.68
2023-04-30T01:06:56.294Z,66.75
2023-04-30T01:07:56.314Z,66.43
2023-04-30T01:08:56.330Z,65.91
2023-04-30T01:09:56.552Z,65.38
2023-04-30T01:10:56.385Z,62.09
2023-04-30T01:11:56.436Z,67.87
2023-04-30T01:12:56.444Z,65.46
2023-04-30T01:13:56.469Z,67.18
2023-04-30T01:14:56.970Z,70.62
2023-04-30T01:15:56.590Z,65.11
2023-04-30T01:16:56.557Z,63.16
2023-04-30T01:17:56.685Z,64.18
2023-04-30T01:18:56.713Z,69.77
2023-04-30T01:19:56.655Z,66.59
2023-04-30T01:20:56.666Z,66.04
2023-04-30T01:21:56.676Z,63.60
2023-04-30T01:22:56.742Z,64.87
2023-04-30T01:23:56.737Z,65.79
2023-04-30T01:24:56.771Z,69.65
2023-04-30T01:25:56.793Z,62.72
2023-04-30T01:26:56.841Z,56.99
2023-04-30T01:27:56.863Z,60.55
2023-04-30T01:28:56.871Z,67.12
2023-04-30T01:29:56.959Z,63.69
2023-04-30T01:30:57.032Z,65.78
2023-04-30T01:31:56.996Z,65.91
2023-04-30T01:32:57.016Z,60.82
2023-04-30T01:33:57.016Z,67.16
2023-04-30T01:34:57.079Z,68.52
2023-04-30T01:35:57.102Z,65.91
2023-04-30T01:36:57.109Z,60.21
2023-04-30T01:37:57.151Z,65.03
2023-04-30T01:38:57.150Z,68.09
2023-04-30T01:39:57.385Z,66.09
2023-04-30T01:40:57.192Z,67.02
2023-04-30T01:41:57.208Z,69.61
2023-04-30T01:42:57.274Z,65.83
2023-04-30T01:43:57.293Z,59.84
2023-04-30T01:44:57.294Z,65.66
2023-04-30T01:45:57.368Z,66.85
2023-04-30T01:46:57.372Z,65.17
2023-04-30T01:47:57.460Z,67.88
2023-04-30T01:48:57.410Z,63.28
2023-04-30T01:49:57.454Z,63.21
2023-04-30T01:50:57.497Z,62.90
2023-04-30T01:51:57.489Z,64.71
2023-04-30T01:52:57.500Z,59.63
2023-04-30T01:53:57.524Z,62.47
2023-04-30T01:54:57.568Z,63.20
2023-04-30T01:55:57.611Z,63.11
2023-04-30T01:56:57.615Z,71.13
2023-04-30T01:57:57.638Z,65.83
2023-04-30T01:58:57.666Z,58.93
2023-04-30T01:59:57.684Z,61.05
2023-04-30T02:00:57.706Z,63.03
2023-04-30T02:01:57.750Z,66.63
2023-04-30T02:02:57.851Z,61.19
2023-04-30T02:03:57.837Z,60.50
2023-04-30T02:04:57.807Z,69.35
2023-04-30T02:05:57.872Z,60.21
2023-04-30T02:06:57.864Z,64.77
2023-04-30T02:07:57.884Z,67.42
2023-04-30T02:08:57.948Z,62.76
2023-04-30T02:09:57.968Z,61.47
2023-04-30T02:10:57.977Z,56.15
2023-04-30T02:11:58.060Z,60.90
2023-04-30T02:12:58.071Z,66.82
2023-04-30T02:13:58.089Z,66.06
2023-04-30T02:14:58.143Z,63.28
2023-04-30T02:15:58.223Z,68.21
2023-04-30T02:16:58.190Z,62.43
2023-04-30T02:17:58.266Z,60.29
2023-04-30T02:18:58.276Z,58.28
2023-04-30T02:19:58.276Z,57.91
2023-04-30T02:20:58.305Z,60.67
2023-04-30T02:21:58.353Z,61.38
2023-04-30T02:22:58.364Z,66.67
2023-04-30T02:23:58.397Z,59.01
2023-04-30T02:24:58.421Z,65.76
2023-04-30T02:25:58.448Z,63.41
2023-04-30T02:26:58.498Z,63.24
2023-04-30T02:27:58.507Z,66.57
2023-04-30T02:28:58.540Z,66.66
2023-04-30T02:29:58.561Z,62.74
2023-04-30T02:30:58.604Z,60.27
2023-04-30T02:31:58.715Z,58.05
2023-04-30T02:32:58.648Z,61.90
2023-04-30T02:33:58.671Z,56.87
2023-04-30T02:34:58.748Z,63.32
2023-04-30T02:35:58.716Z,59.50
2023-04-30T02:36:58.778Z,64.12
2023-04-30T02:37:58.795Z,68.70
2023-04-30T02:38:58.821Z,65.53
2023-04-30T02:39:58.871Z,66.28
2023-04-30T02:40:58.876Z,59.80
2023-04-30T02:41:58.909Z,64.56
2023-04-30T02:42:58.948Z,58.09
2023-04-30T02:43:58.956Z,62.72
2023-04-30T02:44:58.978Z,61.62
2023-04-30T02:45:59.087Z,53.10
2023-04-30T02:46:59.054Z,66.36
2023-04-30T02:47:59.153Z,59.19
2023-04-30T02:48:59.103Z,55.89
2023-04-30T02:49:59.122Z,66.84
2023-04-30T02:50:59.150Z,61.34
2023-04-30T02:51:59.219Z,64.05
2023-04-30T02:52:59.221Z,58.75
2023-04-30T02:53:59.271Z,57.24
2023-04-30T02:54:59.277Z,63.85
2023-04-30T02:55:59.280Z,64.05
2023-04-30T02:56:59.348Z,61.02
2023-04-30T02:57:59.366Z,68.85
2023-04-30T02:58:59.405Z,64.05
2023-04-30T02:59:59.406Z,64.50
2023-04-30T03:00:59.433Z,63.85
2023-04-30T03:01:59.468Z,67.62
2023-04-30T03:02:59.545Z,61.22
2023-04-30T03:03:59.562Z,63.25
2023-04-30T03:04:59.548Z,65.29
2023-04-30T03:05:59.629Z,65.24
2023-04-30T03:06:59.573Z,62.27
2023-04-30T03:07:59.604Z,61.46
2023-04-30T03:08:59.619Z,59.70
2023-04-30T03:09:59.655Z,58.91
2023-04-30T03:10:59.686Z,62.12
2023-04-30T03:11:59.730Z,64.02
2023-04-30T03:12:59.755Z,63.19
2023-04-30T03:13:59.751Z,65.98
2023-04-30T03:14:59.791Z,60.39
2023-04-30T03:15:59.816Z,60.13
2023-04-30T03:16:59.819Z,62.02
2023-04-30T03:17:59.935Z,62.11
2023-04-30T03:18:59.870Z,56.36
2023-04-30T03:19:59.913Z,63.66
2023-04-30T03:20:59.936Z,62.21
2023-04-30T03:21:59.956Z,64.82
2023-04-30T03:22:59.993Z,62.82
2023-04-30T03:24:00.001Z,59.71
2023-04-30T03:25:00.034Z,62.95
2023-04-30T03:26:00.129Z,58.07
2023-04-30T03:27:00.124Z,65.91
2023-04-30T03:28:00.155Z,62.84
2023-04-30T03:29:00.157Z,59.36
2023-04-30T03:30:00.206Z,58.67
2023-04-30T03:31:00.282Z,54.94
2023-04-30T03:32:00.332Z,65.56
2023-04-30T03:33:00.328Z,65.43
2023-04-30T03:34:00.475Z,62.75
2023-04-30T03:35:00.378Z,57.69
2023-04-30T03:36:00.390Z,61.54
2023-04-30T03:37:00.406Z,58.16
2023-04-30T03:38:00.449Z,63.50
2023-04-30T03:39:00.469Z,63.03
2023-04-30T03:40:00.524Z,56.50
2023-04-30T03:41:00.531Z,69.70
2023-04-30T03:42:00.607Z,58.17
2023-04-30T03:43:00.635Z,55.55
2023-04-30T03:44:00.646Z,65.03
2023-04-30T03:45:00.684Z,68.34
2023-04-30T03:46:00.754Z,59.23
2023-04-30T03:47:00.748Z,55.74
2023-04-30T03:48:00.831Z,60.51
2023-04-30T03:49:00.793Z,55.56
2023-04-30T03:50:00.856Z,60.06
2023-04-30T03:51:00.876Z,54.58
2023-04-30T03:52:00.935Z,56.54
2023-04-30T03:53:00.956Z,60.38
2023-04-30T03:54:01.013Z,56.22
2023-04-30T03:55:01.001Z,63.21
2023-04-30T03:56:01.074Z,60.41
2023-04-30T03:57:01.080Z,57.38
2023-04-30T03:58:01.122Z,58.81
2023-04-30T03:59:01.136Z,61.57
2023-04-30T04:00:01.181Z,55.13
2023-04-30T04:01:01.218Z,56.08
2023-04-30T04:02:01.267Z,51.70
2023-04-30T04:03:01.312Z,59.60
2023-04-30T04:04:01.371Z,59.13
2023-04-30T04:05:01.387Z,65.13
2023-04-30T04:06:01.412Z,60.93
2023-04-30T04:07:01.438Z,61.10
2023-04-30T04:08:01.451Z,58.05
2023-04-30T04:09:01.475Z,56.96
2023-04-30T04:10:01.533Z,57.87
2023-04-30T04:11:01.572Z,61.07
2023-04-30T04:12:01.601Z,50.70
2023-04-30T04:13:01.609Z,56.45
2023-04-30T04:14:01.658Z,56.30
2023-04-30T04:15:01.687Z,56.96
2023-04-30T04:16:01.770Z,50.33
2023-04-30T04:17:01.762Z,61.44
2023-04-30T04:18:01.826Z,55.89
2023-04-30T04:19:01.825Z,59.48
2023-04-30T04:20:01.830Z,63.09
2023-04-30T04:21:01.888Z,60.01
2023-04-30T04:22:02.009Z,61.17
2023-04-30T04:23:01.958Z,60.78
2023-04-30T04:24:01.970Z,54.46
2023-04-30T04:25:02.023Z,53.26
2023-04-30T04:26:02.039Z,56.88
2023-04-30T04:27:02.084Z,56.77
2023-04-30T04:28:02.174Z,49.37
2023-04-30T04:29:02.147Z,58.23
2023-04-30T04:30:02.241Z,59.78
2023-04-30T04:31:02.253Z,53.72
2023-04-30T04:32:02.382Z,51.17
2023-04-30T04:33:02.340Z,56.23
2023-04-30T04:34:02.355Z,54.30
2023-04-30T04:35:02.414Z,61.21
2023-04-30T04:36:02.424Z,63.14
2023-04-30T04:37:02.451Z,57.42
2023-04-30T04:38:02.483Z,50.16
2023-04-30T04:39:02.541Z,59.82
2023-04-30T04:40:02.559Z,58.60
2023-04-30T04:41:02.567Z,57.76
2023-04-30T04:42:02.602Z,48.65
2023-04-30T04:43:02.663Z,58.73
2023-04-30T04:44:02.664Z,59.33
2023-04-30T04:45:02.717Z,58.38
2023-04-30T04:46:02.882Z,53.40
2023-04-30T04:47:02.802Z,54.46
2023-04-30T04:48:02.898Z,51.23
2023-04-30T04:49:02.829Z,56.92
2023-04-30T04:50:02.890Z,58.28
2023-04-30T04:51:02.923Z,60.05
2023-04-30T04:52:02.951Z,50.72
2023-04-30T04:53:02.997Z,49.06
2023-04-30T04:54:03.022Z,57.41
2023-04-30T04:55:03.037Z,56.83
2023-04-30T04:56:03.109Z,58.42
2023-04-30T04:57:03.124Z,51.99
2023-04-30T04:58:03.146Z,59.25
2023-04-30T04:59:03.228Z,58.05
2023-04-30T05:00:03.238Z,54.92
2023-04-30T05:01:03.291Z,52.15
2023-04-30T05:02:03.381Z,55.56
2023-04-30T05:03:03.475Z,51.82
2023-04-30T05:04:03.479Z,55.85
2023-04-30T05:05:03.449Z,50.86
2023-04-30T05:06:03.528Z,53.67
2023-04-30T05:07:03.523Z,52.53
2023-04-30T05:08:03.531Z,53.90
2023-04-30T05:09:03.601Z,52.73
2023-04-30T05:10:03.607Z,51.85
2023-04-30T05:11:03.662Z,57.69
2023-04-30T05:12:03.694Z,54.81
2023-04-30T05:13:03.732Z,54.34
2023-04-30T05:14:03.772Z,55.55
2023-04-30T05:15:03.814Z,54.21
2023-04-30T05:16:03.892Z,57.73
2023-04-30T05:17:03.892Z,56.89
2023-04-30T05:18:04.011Z,55.60
2023-04-30T05:19:03.989Z,54.79
2023-04-30T05:20:04.050Z,49.83
2023-04-30T05:21:04.057Z,56.39
2023-04-30T05:22:04.083Z,52.23
2023-04-30T05:23:04.123Z,58.55
2023-04-30T05:24:04.186Z,54.00
2023-04-30T05:25:04.208Z,51.85
2023-04-30T05:26:04.260Z,50.04
2023-04-30T05:27:04.293Z,50.62
2023-04-30T05:28:04.323Z,54.41
2023-04-30T05:29:04.377Z,47.44
2023-04-30T05:30:04.440Z,51.47
2023-04-30T05:31:04.446Z,50.22
2023-04-30T05:32:04.542Z,56.17
2023-04-30T05:33:04.572Z,56.39
2023-04-30T05:34:04.569Z,45.79
2023-04-30T05:35:04.616Z,53.33
2023-04-30T05:36:04.652Z,47.55
2023-04-30T05:37:05.031Z,47.77
2023-04-30T05:38:04.749Z,51.89
2023-04-30T05:39:04.762Z,50.86
2023-04-30T05:40:04.820Z,46.70
2023-04-30T05:41:04.863Z,56.08
2023-04-30T05:42:04.918Z,51.68
2023-04-30T05:43:04.922Z,49.27
2023-04-30T05:44:05.028Z,42.58
2023-04-30T05:45:05.011Z,57.25
2023-04-30T05:46:05.058Z,47.68
2023-04-30T05:47:05.072Z,45.43
2023-04-30T05:48:05.218Z,54.18
2023-04-30T05:49:05.139Z,52.33
2023-04-30T05:50:05.206Z,45.25
2023-04-30T05:51:05.235Z,55.35
2023-04-30T05:52:05.257Z,54.68
2023-04-30T05:53:05.290Z,49.81
2023-04-30T05:54:05.339Z,47.57
2023-04-30T05:55:05.409Z,55.88
2023-04-30T05:56:05.401Z,52.03
2023-04-30T05:57:05.442Z,58.69
2023-04-30T05:58:05.459Z,55.78
2023-04-30T05:59:05.482Z,52.55
2023-04-30T06:00:05.553Z,50.86
2023-04-30T06:01:05.589Z,52.73
2023-04-30T06:02:05.646Z,50.77
2023-04-30T06:03:05.685Z,52.59
2023-04-30T06:04:05.799Z,57.47
2023-04-30T06:05:05.787Z,54.96
2023-04-30T06:06:05.782Z,51.15
2023-04-30T06:07:05.815Z,50.50
2023-04-30T06:08:05.830Z,49.76
2023-04-30T06:09:05.871Z,52.97
2023-04-30T06:10:05.921Z,55.45
2023-04-30T06:11:05.937Z,51.57
2023-04-30T06:12:05.981Z,51.17
2023-04-30T06:13:06.031Z,49.63
2023-04-30T06:14:06.073Z,51.86
2023-04-30T06:15:06.093Z,54.76
2023-04-30T06:16:06.206Z,54.68
2023-04-30T06:17:06.174Z,58.13
2023-04-30T06:18:06.260Z,53.57
2023-04-30T06:19:06.244Z,53.05
2023-04-30T06:20:06.289Z,55.47
2023-04-30T06:21:06.357Z,55.50
2023-04-30T06:22:06.332Z,55.43
2023-04-30T06:23:06.400Z,51.66
2023-04-30T06:24:06.410Z,53.72
2023-04-30T06:25:06.503Z,50.43
2023-04-30T06:26:06.499Z,52.76
2023-04-30T06:27:06.538Z,48.66
2023-04-30T06:28:06.562Z,51.81
2023-04-30T06:29:06.604Z,54.54
2023-04-30T06:30:06.633Z,50.65
2023-04-30T06:31:06.651Z,56.17
2023-04-30T06:32:08.354Z,46.60
2023-04-30T06:33:06.737Z,57.95
2023-04-30T06:34:06.757Z,51.84
2023-04-30T06:35:06.771Z,57.13
2023-04-30T06:36:06.797Z,54.65
2023-04-30T06:37:06.869Z,52.75
2023-04-30T06:38:06.875Z,53.06
2023-04-30T06:39:06.881Z,51.31
2023-04-30T06:40:07.086Z,46.48
2023-04-30T06:41:06.963Z,50.06
2023-04-30T06:42:07.005Z,48.63
2023-04-30T06:43:07.035Z,47.21
2023-04-30T06:44:07.067Z,51.09
2023-04-30T06:45:07.132Z,57.74
2023-04-30T06:46:07.178Z,49.50
2023-04-30T06:47:07.194Z,50.29
2023-04-30T06:48:07.244Z,49.19
2023-04-30T06:49:07.212Z,51.51
2023-04-30T06:50:07.256Z,47.58
2023-04-30T06:51:09.897Z,51.59
2023-04-30T06:52:07.286Z,45.24
2023-04-30T06:53:07.274Z,51.92
2023-04-30T06:54:07.257Z,48.01
2023-04-30T06:55:07.244Z,58.37
2023-04-30T06:56:07.259Z,53.46
2023-04-30T06:57:07.274Z,53.77
2023-04-30T06:58:07.232Z,52.41
2023-04-30T06:59:07.221Z,52.24
2023-04-30T07:00:07.264Z,50.31
2023-04-30T07:01:07.240Z,57.55
2023-04-30T07:02:07.334Z,51.61
2023-04-30T07:03:07.308Z,50.18
2023-04-30T07:04:07.176Z,47.72
2023-04-30T07:05:07.186Z,46.13
2023-04-30T07:06:07.195Z,43.31
2023-04-30T07:07:07.177Z,48.37
2023-04-30T07:08:07.175Z,46.67
2023-04-30T07:09:07.162Z,50.46
2023-04-30T07:10:07.151Z,52.58
2023-04-30T07:11:07.157Z,48.16
2023-04-30T07:12:07.148Z,48.91
2023-04-30T07:13:07.139Z,48.09
2023-04-30T07:14:07.128Z,46.60
2023-04-30T07:15:07.151Z,45.28
2023-04-30T07:16:07.206Z,40.90
2023-04-30T07:17:07.564Z,43.52
2023-04-30T07:18:07.145Z,48.67
2023-04-30T07:19:07.074Z,43.87
2023-04-30T07:20:07.086Z,47.24
2023-04-30T07:21:07.056Z,40.15
2023-04-30T07:22:07.069Z,45.19
2023-04-30T07:23:07.068Z,39.82
2023-04-30T07:24:07.058Z,41.59
2023-04-30T07:25:07.061Z,47.89
2023-04-30T07:26:07.020Z,45.35
2023-04-30T07:27:07.044Z,42.91
2023-04-30T07:28:07.011Z,45.75
2023-04-30T07:29:07.012Z,46.53
2023-04-30T07:30:07.003Z,45.13
2023-04-30T07:31:07.005Z,44.47
2023-04-30T07:32:07.001Z,45.96
2023-04-30T07:33:07.059Z,44.54
2023-04-30T07:34:06.992Z,48.98
2023-04-30T07:35:06.976Z,48.54
2023-04-30T07:36:06.954Z,44.31
2023-04-30T07:37:07.002Z,48.76
2023-04-30T07:38:06.969Z,51.38
2023-04-30T07:39:06.967Z,43.07
2023-04-30T07:40:06.947Z,44.87
2023-04-30T07:41:06.917Z,41.62
2023-04-30T07:42:06.979Z,45.88
2023-04-30T07:43:06.924Z,45.05
2023-04-30T07:44:06.943Z,46.39
2023-04-30T07:45:06.908Z,41.90
2023-04-30T07:46:06.965Z,47.52
2023-04-30T07:47:06.926Z,43.53
2023-04-30T07:48:06.964Z,43.23
2023-04-30T07:49:06.859Z,45.44
2023-04-30T07:50:06.865Z,48.57
2023-04-30T07:51:06.848Z,51.93
2023-04-30T07:52:06.850Z,45.78
2023-04-30T07:53:06.844Z,47.10
2023-04-30T07:54:06.851Z,43.06
2023-04-30T07:55:06.867Z,44.87
2023-04-30T07:56:06.827Z,45.55
2023-04-30T07:57:06.831Z,45.61
2023-04-30T07:58:06.840Z,48.42
2023-04-30T07:59:06.815Z,45.20
2023-04-30T08:00:06.805Z,43.71
2023-04-30T08:01:06.787Z,44.46
2023-04-30T08:02:06.835Z,47.38
2023-04-30T08:03:06.878Z,49.17
2023-04-30T08:04:06.879Z,48.71
2023-04-30T08:05:06.776Z,48.66
2023-04-30T08:06:06.781Z,46.11
2023-04-30T08:07:06.787Z,46.57
2023-04-30T08:08:06.764Z,45.11
2023-04-30T08:09:06.728Z,51.25
2023-04-30T08:10:06.759Z,48.20
2023-04-30T08:11:06.716Z,43.41
2023-04-30T08:12:06.724Z,50.16
2023-04-30T08:13:06.706Z,44.96
2023-04-30T08:14:06.693Z,44.68
2023-04-30T08:15:07.097Z,42.67
2023-04-30T08:16:06.787Z,44.40
2023-04-30T08:17:06.664Z,42.51
2023-04-30T08:18:06.750Z,45.26
2023-04-30T08:19:06.697Z,55.56
2023-04-30T08:20:06.663Z,50.91
2023-04-30T08:21:06.686Z,50.25
2023-04-30T08:22:06.633Z,49.39
2023-04-30T08:23:06.663Z,46.72
2023-04-30T08:24:06.636Z,42.71
2023-04-30T08:25:06.660Z,50.73
2023-04-30T08:26:06.624Z,52.51
2023-04-30T08:27:06.637Z,50.52
2023-04-30T08:28:06.587Z,45.21
2023-04-30T08:29:06.616Z,42.12
2023-04-30T08:30:06.577Z,46.34
2023-04-30T08:31:06.616Z,46.07
2023-04-30T08:32:06.648Z,48.96
2023-04-30T08:33:06.647Z,51.80
2023-04-30T08:34:06.549Z,43.04
2023-04-30T08:35:06.588Z,40.15
2023-04-30T08:36:06.561Z,37.97
2023-04-30T08:37:06.533Z,41.34
2023-04-30T08:38:06.526Z,40.16
2023-04-30T08:39:06.523Z,45.79
2023-04-30T08:40:06.555Z,39.09
2023-04-30T08:41:06.586Z,41.70
2023-04-30T08:42:06.498Z,38.54
2023-04-30T08:43:06.521Z,42.53
2023-04-30T08:44:08.486Z,41.22
2023-04-30T08:45:06.519Z,38.89
2023-04-30T08:46:06.529Z,39.85
2023-04-30T08:47:06.499Z,43.37
2023-04-30T08:48:06.666Z,39.08
2023-04-30T08:49:06.457Z,37.96
2023-04-30T08:50:06.444Z,40.93
2023-04-30T08:51:06.481Z,36.43
2023-04-30T08:52:06.434Z,36.08
2023-04-30T08:53:06.473Z,41.09
2023-04-30T08:54:06.424Z,35.74
2023-04-30T08:55:06.433Z,33.47
2023-04-30T08:56:06.404Z,31.15
2023-04-30T08:57:06.439Z,32.90
2023-04-30T08:58:06.401Z,36.56
2023-04-30T08:59:06.413Z,35.99
2023-04-30T09:00:06.446Z,34.41
2023-04-30T09:01:06.486Z,40.65
2023-04-30T09:02:06.454Z,36.69
2023-04-30T09:03:06.506Z,34.92
2023-04-30T09:04:06.459Z,39.10
2023-04-30T09:05:06.428Z,39.55
2023-04-30T09:06:06.422Z,37.45
2023-04-30T09:07:08.843Z,38.99
2023-04-30T09:08:06.384Z,44.60
2023-04-30T09:09:06.357Z,43.96
2023-04-30T09:10:06.426Z,39.70
2023-04-30T09:11:06.386Z,38.01
2023-04-30T09:12:06.350Z,39.93
2023-04-30T09:13:06.362Z,39.72
2023-04-30T09:14:06.334Z,46.09
2023-04-30T09:15:06.402Z,43.23
2023-04-30T09:16:06.390Z,42.19
2023-04-30T09:17:06.309Z,44.98
2023-04-30T09:18:06.396Z,42.77
2023-04-30T09:19:06.285Z,43.55
2023-04-30T09:20:06.390Z,45.97
2023-04-30T09:21:06.280Z,40.09
2023-04-30T09:22:06.269Z,40.79
2023-04-30T09:23:06.268Z,40.98
2023-04-30T09:24:06.265Z,42.87
2023-04-30T09:25:06.270Z,41.59
2023-04-30T09:26:06.250Z,43.09
2023-04-30T09:27:06.265Z,41.27
2023-04-30T09:28:06.235Z,44.00
2023-04-30T09:29:06.256Z,41.58
2023-04-30T09:30:06.228Z,41.35
2023-04-30T09:31:06.258Z,40.26
2023-04-30T09:32:06.226Z,37.92
2023-04-30T09:33:06.997Z,36.52
2023-04-30T09:34:06.226Z,36.79
2023-04-30T09:35:06.210Z,37.73
2023-04-30T09:36:06.180Z,40.05
2023-04-30T09:37:06.192Z,38.80
2023-04-30T09:38:06.214Z,41.70
2023-04-30T09:39:08.281Z,39.70
2023-04-30T09:40:06.200Z,46.47
2023-04-30T09:41:06.209Z,51.33
2023-04-30T09:42:06.234Z,45.48
2023-04-30T09:43:06.204Z,44.43
2023-04-30T09:44:06.169Z,42.70
2023-04-30T09:45:06.188Z,43.23
2023-04-30T09:46:06.230Z,44.35
2023-04-30T09:47:06.208Z,41.45
2023-04-30T09:48:16.602Z,42.96
2023-04-30T09:49:07.144Z,43.31
2023-04-30T09:50:06.148Z,43.32
2023-04-30T09:51:06.157Z,43.58
2023-04-30T09:52:06.175Z,44.22
2023-04-30T09:53:06.152Z,42.50
2023-04-30T09:54:06.156Z,44.02
2023-04-30T09:55:06.141Z,38.81
2023-04-30T09:56:06.144Z,42.82
2023-04-30T09:57:06.092Z,41.84
2023-04-30T09:58:06.122Z,41.01
2023-04-30T09:59:06.100Z,43.42
2023-04-30T10:00:06.064Z,41.72
2023-04-30T10:01:06.122Z,41.68
2023-04-30T10:02:06.089Z,43.25
2023-04-30T10:03:06.103Z,39.56
2023-04-30T10:04:06.066Z,41.42
2023-04-30T10:05:06.063Z,42.08
2023-04-30T10:06:06.131Z,42.82
2023-04-30T10:07:06.023Z,47.35
2023-04-30T10:08:06.043Z,42.36
2023-04-30T10:09:06.014Z,47.96
2023-04-30T10:10:06.040Z,44.60
2023-04-30T10:11:06.011Z,44.99
2023-04-30T10:12:05.977Z,42.43
2023-04-30T10:13:07.729Z,43.75
2023-04-30T10:14:05.980Z,45.37
2023-04-30T10:15:05.981Z,45.50
2023-04-30T10:16:06.036Z,46.84
2023-04-30T10:17:05.976Z,43.51
2023-04-30T10:18:06.013Z,47.15
2023-04-30T10:19:05.951Z,48.47
2023-04-30T10:20:06.046Z,50.70
2023-04-30T10:21:06.032Z,46.86
2023-04-30T10:22:06.020Z,46.91
2023-04-30T10:23:06.017Z,46.76
2023-04-30T10:24:06.041Z,46.46
2023-04-30T10:25:06.011Z,44.64
2023-04-30T10:26:06.032Z,45.07
2023-04-30T10:27:05.996Z,47.88
2023-04-30T10:28:06.028Z,47.96
2023-04-30T10:29:05.986Z,46.63
2023-04-30T10:30:05.994Z,48.04
2023-04-30T10:31:05.984Z,50.03
2023-04-30T10:32:06.013Z,50.25
2023-04-30T10:33:06.049Z,50.46
2023-04-30T10:34:05.989Z,51.02
2023-04-30T10:35:05.996Z,54.07
2023-04-30T10:36:06.012Z,51.61
2023-04-30T10:37:06.037Z,48.30
2023-04-30T10:38:06.108Z,51.37
2023-04-30T10:39:06.088Z,51.11
2023-04-30T10:40:06.091Z,49.46
2023-04-30T10:41:06.102Z,48.39
2023-04-30T10:42:06.090Z,50.18
2023-04-30T10:43:06.079Z,49.39
2023-04-30T10:44:06.072Z,52.21
2023-04-30T10:45:06.085Z,51.14
2023-04-30T10:46:06.134Z,53.22
2023-04-30T10:47:06.054Z,54.07
2023-04-30T10:48:06.210Z,55.96
2023-04-30T10:49:06.060Z,55.85
2023-04-30T10:50:06.068Z,54.35
2023-04-30T10:51:06.034Z,54.83
2023-04-30T10:52:06.115Z,56.89
2023-04-30T10:53:06.040Z,56.49
2023-04-30T10:54:06.006Z,53.46
2023-04-30T10:55:06.062Z,52.83
2023-04-30T10:56:06.037Z,59.26
2023-04-30T10:57:06.032Z,55.98
2023-04-30T10:58:06.018Z,57.67
2023-04-30T10:59:06.024Z,53.27
2023-04-30T11:00:06.012Z,52.04
2023-04-30T11:01:06.061Z,53.99
2023-04-30T11:02:06.025Z,55.85
2023-04-30T11:03:06.072Z,52.81
2023-04-30T11:04:06.073Z,54.47
2023-04-30T11:05:06.135Z,55.64
2023-04-30T11:06:06.192Z,57.80
2023-04-30T11:07:06.068Z,54.10
2023-04-30T11:08:06.097Z,56.25
2023-04-30T11:09:06.153Z,59.61
2023-04-30T11:10:06.170Z,59.69
2023-04-30T11:11:06.217Z,57.20
2023-04-30T11:12:06.228Z,56.41
2023-04-30T11:13:06.261Z,56.82
2023-04-30T11:14:06.289Z,54.27
2023-04-30T11:15:06.335Z,55.98
2023-04-30T11:16:06.392Z,54.99
2023-04-30T11:17:06.370Z,56.64
2023-04-30T11:18:06.416Z,54.08
2023-04-30T11:19:06.405Z,52.19
2023-04-30T11:20:06.385Z,53.54
2023-04-30T11:21:06.387Z,54.57
2023-04-30T11:22:06.470Z,52.55
2023-04-30T11:23:06.437Z,49.70
2023-04-30T11:24:06.502Z,54.05
2023-04-30T11:25:06.524Z,53.27
2023-04-30T11:26:06.593Z,50.72
2023-04-30T11:27:06.642Z,52.06
2023-04-30T11:28:06.684Z,52.50
2023-04-30T11:29:06.761Z,48.23
2023-04-30T11:30:06.765Z,50.64
2023-04-30T11:31:06.986Z,48.41
2023-04-30T11:32:06.879Z,48.12
2023-04-30T11:33:07.008Z,53.43
2023-04-30T11:34:06.957Z,54.50
2023-04-30T11:35:07.016Z,52.20
2023-04-30T11:36:07.077Z,51.46
2023-04-30T11:37:07.102Z,53.63
2023-04-30T11:38:07.165Z,50.31
2023-04-30T11:39:07.195Z,46.03
2023-04-30T11:40:07.259Z,48.29
2023-04-30T11:41:07.315Z,49.99
2023-04-30T11:42:07.356Z,51.74
2023-04-30T11:43:07.375Z,52.67
2023-04-30T11:44:07.430Z,48.68
2023-04-30T11:45:07.471Z,49.23
2023-04-30T11:46:07.816Z,45.42
2023-04-30T11:47:07.602Z,49.23
2023-04-30T11:48:07.653Z,49.99
2023-04-30T11:49:07.643Z,45.41
2023-04-30T11:50:07.699Z,49.22
2023-04-30T11:51:07.710Z,41.60
2023-04-30T11:52:07.794Z,42.42
2023-04-30T11:53:07.821Z,44.74
2023-04-30T11:54:07.849Z,45.38
2023-04-30T11:55:07.902Z,47.23
2023-04-30T11:56:08.017Z,45.80
2023-04-30T11:57:07.986Z,45.91
2023-04-30T11:58:08.003Z,41.97
2023-04-30T11:59:08.055Z,43.32
2023-04-30T12:00:08.134Z,46.37
2023-04-30T12:01:08.158Z,43.37
2023-04-30T12:02:08.331Z,43.75
2023-04-30T12:03:08.344Z,42.21
2023-04-30T12:04:08.437Z,39.27
2023-04-30T12:05:08.384Z,46.85
2023-04-30T12:06:08.466Z,47.72
2023-04-30T12:07:08.525Z,43.14
2023-04-30T12:08:08.549Z,43.03
2023-04-30T12:09:08.563Z,44.17
2023-04-30T12:10:08.657Z,45.23
2023-04-30T12:11:08.705Z,44.08
2023-04-30T12:12:08.715Z,42.44
2023-04-30T12:13:08.790Z,49.45
2023-04-30T12:14:08.807Z,49.46
2023-04-30T12:15:08.868Z,48.40
2023-04-30T12:16:08.978Z,46.69
2023-04-30T12:17:09.021Z,44.72
2023-04-30T12:18:09.085Z,39.80
2023-04-30T12:19:09.102Z,43.46
2023-04-30T12:20:09.154Z,45.03
2023-04-30T12:21:09.206Z,44.88
2023-04-30T12:22:09.269Z,40.47
2023-04-30T12:23:09.294Z,41.90
2023-04-30T12:24:09.356Z,39.18
2023-04-30T12:25:09.426Z,38.30
2023-04-30T12:26:09.448Z,32.97
2023-04-30T12:27:09.526Z,38.37
2023-04-30T12:28:09.560Z,39.13
2023-04-30T12:29:09.673Z,31.42
2023-04-30T12:30:09.708Z,34.55
2023-04-30T12:31:09.732Z,34.62
2023-04-30T12:32:09.814Z,30.26
2023-04-30T12:33:09.970Z,30.91
2023-04-30T12:34:09.902Z,31.54
2023-04-30T12:35:09.969Z,32.16
2023-04-30T12:36:09.997Z,35.11
2023-04-30T12:37:10.050Z,36.30
2023-04-30T12:38:10.072Z,35.86
2023-04-30T12:39:10.169Z,34.17
2023-04-30T12:40:10.173Z,29.28
2023-04-30T12:41:10.222Z,29.48
2023-04-30T12:42:10.265Z,35.51
2023-04-30T12:43:10.335Z,37.46
2023-04-30T12:44:10.348Z,32.14
2023-04-30T12:45:10.423Z,30.04
2023-04-30T12:46:10.519Z,26.86
2023-04-30T12:47:10.546Z,28.72
2023-04-30T12:48:10.685Z,31.10
2023-04-30T12:49:10.693Z,30.04
2023-04-30T12:50:10.729Z,25.00
2023-04-30T12:51:10.773Z,33.00
2023-04-30T12:52:10.851Z,32.61
2023-04-30T12:53:10.899Z,36.09